sensor_id;sensor_type;location;lat;lon;timestamp;P1;durP1;ratioP1;P2;durP2;ratioP2
76094;SDS011;64821;13.710;100.604;2023-06-14T00:00:16;12.48;;;5.40;;
76094;SDS011;64821;13.710;100.604;2023-06-14T00:01:20;10.05;;;4.90;;
76094;SDS011;64821;13.710;100.604;2023-06-14T00:02:24;12.10;;;4.88;;
76094;SDS011;64821;13.710;100.604;2023-06-14T00:03:28;10.27;;;4.87;;
76094;SDS011;64821;13.710;100.604;2023-06-14T00:04:31;11.50;;;4.97;;
76094;SDS011;64821;13.710;100.604;2023-06-14T00:05:35;10.13;;;4.65;;
76094;SDS011;64821;13.710;100.604;2023-06-14T00:06:39;11.30;;;4.57;;
76094;SDS011;64821;13.710;100.604;2023-06-14T00:07:44;9.85;;;4.60;;
76094;SDS011;64821;13.710;100.604;2023-06-14T00:08:48;11.50;;;4.37;;
76094;SDS011;64821;13.710;100.604;2023-06-14T00:09:51;9.35;;;4.50;;
76094;SDS011;64821;13.710;100.604;2023-06-14T00:10:55;9.40;;;4.22;;
76094;SDS011;64821;13.710;100.604;2023-06-14T00:11:59;10.07;;;4.80;;
76094;SDS011;64821;13.710;100.604;2023-06-14T00:13:03;10.57;;;5.10;;
76094;SDS011;64821;13.710;100.604;2023-06-14T00:14:07;10.00;;;4.43;;
76094;SDS011;64821;13.710;100.604;2023-06-14T00:15:11;10.90;;;4.65;;
76094;SDS011;64821;13.710;100.604;2023-06-14T00:16:14;9.95;;;4.45;;
76094;SDS011;64821;13.710;100.604;2023-06-14T00:17:18;9.80;;;4.68;;
76094;SDS011;64821;13.710;100.604;2023-06-14T00:18:22;8.82;;;4.10;;
76094;SDS011;64821;13.710;100.604;2023-06-14T00:19:26;12.13;;;4.17;;
76094;SDS011;64821;13.710;100.604;2023-06-14T00:20:30;11.20;;;4.60;;
76094;SDS011;64821;13.710;100.604;2023-06-14T00:21:34;10.40;;;4.35;;
76094;SDS011;64821;13.710;100.604;2023-06-14T00:22:38;10.15;;;3.72;;
76094;SDS011;64821;13.710;100.604;2023-06-14T00:23:43;10.45;;;3.55;;
76094;SDS011;64821;13.710;100.604;2023-06-14T00:24:47;9.97;;;3.97;;
76094;SDS011;64821;13.710;100.604;2023-06-14T00:25:51;8.60;;;4.03;;
76094;SDS011;64821;13.710;100.604;2023-06-14T00:26:54;9.68;;;3.75;;
76094;SDS011;64821;13.710;100.604;2023-06-14T00:27:58;11.02;;;3.72;;
76094;SDS011;64821;13.710;100.604;2023-06-14T00:29:02;9.68;;;3.80;;
76094;SDS011;64821;13.710;100.604;2023-06-14T00:30:06;10.13;;;3.63;;
76094;SDS011;64821;13.710;100.604;2023-06-14T00:31:10;10.30;;;3.75;;
76094;SDS011;64821;13.710;100.604;2023-06-14T00:32:14;9.75;;;3.45;;
76094;SDS011;64821;13.710;100.604;2023-06-14T00:33:18;9.15;;;3.38;;
76094;SDS011;64821;13.710;100.604;2023-06-14T00:34:21;12.40;;;4.50;;
76094;SDS011;64821;13.710;100.604;2023-06-14T00:35:25;13.33;;;4.07;;
76094;SDS011;64821;13.710;100.604;2023-06-14T00:36:29;10.65;;;3.60;;
76094;SDS011;64821;13.710;100.604;2023-06-14T00:37:32;9.23;;;3.80;;
76094;SDS011;64821;13.710;100.604;2023-06-14T00:38:36;8.02;;;3.60;;
76094;SDS011;64821;13.710;100.604;2023-06-14T00:39:41;9.55;;;3.47;;
76094;SDS011;64821;13.710;100.604;2023-06-14T00:40:45;11.40;;;3.67;;
76094;SDS011;64821;13.710;100.604;2023-06-14T00:41:49;9.35;;;3.30;;
76094;SDS011;64821;13.710;100.604;2023-06-14T00:42:52;11.20;;;3.75;;
76094;SDS011;64821;13.710;100.604;2023-06-14T00:43:56;7.65;;;3.30;;
76094;SDS011;64821;13.710;100.604;2023-06-14T00:45:00;11.18;;;3.58;;
76094;SDS011;64821;13.710;100.604;2023-06-14T00:46:04;8.40;;;3.70;;
76094;SDS011;64821;13.710;100.604;2023-06-14T00:47:07;10.07;;;3.42;;
76094;SDS011;64821;13.710;100.604;2023-06-14T00:48:11;9.98;;;3.90;;
76094;SDS011;64821;13.710;100.604;2023-06-14T00:49:16;9.38;;;3.80;;
76094;SDS011;64821;13.710;100.604;2023-06-14T00:50:21;9.43;;;3.72;;
76094;SDS011;64821;13.710;100.604;2023-06-14T00:51:25;13.20;;;3.93;;
76094;SDS011;64821;13.710;100.604;2023-06-14T00:52:29;9.68;;;3.80;;
76094;SDS011;64821;13.710;100.604;2023-06-14T00:53:33;9.90;;;3.72;;
76094;SDS011;64821;13.710;100.604;2023-06-14T00:54:37;9.30;;;3.58;;
76094;SDS011;64821;13.710;100.604;2023-06-14T00:55:42;11.63;;;3.88;;
76094;SDS011;64821;13.710;100.604;2023-06-14T00:56:46;8.93;;;3.47;;
76094;SDS011;64821;13.710;100.604;2023-06-14T00:57:50;9.35;;;3.50;;
76094;SDS011;64821;13.710;100.604;2023-06-14T00:58:54;10.65;;;4.00;;
76094;SDS011;64821;13.710;100.604;2023-06-14T00:59:58;9.77;;;3.60;;
76094;SDS011;64821;13.710;100.604;2023-06-14T01:01:02;10.45;;;3.35;;
76094;SDS011;64821;13.710;100.604;2023-06-14T01:02:06;10.20;;;3.63;;
76094;SDS011;64821;13.710;100.604;2023-06-14T01:03:10;13.32;;;3.42;;
76094;SDS011;64821;13.710;100.604;2023-06-14T01:04:13;9.55;;;3.60;;
76094;SDS011;64821;13.710;100.604;2023-06-14T01:05:17;10.82;;;3.90;;
76094;SDS011;64821;13.710;100.604;2023-06-14T01:06:23;11.60;;;3.55;;
76094;SDS011;64821;13.710;100.604;2023-06-14T01:07:37;9.03;;;3.40;;
76094;SDS011;64821;13.710;100.604;2023-06-14T01:08:50;10.18;;;3.20;;
76094;SDS011;64821;13.710;100.604;2023-06-14T01:10:04;9.55;;;3.35;;
76094;SDS011;64821;13.710;100.604;2023-06-14T01:11:21;10.27;;;3.38;;
76094;SDS011;64821;13.710;100.604;2023-06-14T01:12:31;10.38;;;3.30;;
76094;SDS011;64821;13.710;100.604;2023-06-14T01:13:42;10.10;;;3.17;;
76094;SDS011;64821;13.710;100.604;2023-06-14T01:14:48;8.77;;;2.65;;
76094;SDS011;64821;13.710;100.604;2023-06-14T01:15:54;9.45;;;2.55;;
76094;SDS011;64821;13.710;100.604;2023-06-14T01:16:59;8.68;;;2.97;;
76094;SDS011;64821;13.710;100.604;2023-06-14T01:18:04;9.32;;;3.08;;
76094;SDS011;64821;13.710;100.604;2023-06-14T01:19:08;11.87;;;2.93;;
76094;SDS011;64821;13.710;100.604;2023-06-14T01:20:14;8.80;;;2.80;;
76094;SDS011;64821;13.710;100.604;2023-06-14T01:21:22;8.07;;;2.63;;
76094;SDS011;64821;13.710;100.604;2023-06-14T01:22:26;11.52;;;2.92;;
76094;SDS011;64821;13.710;100.604;2023-06-14T01:23:32;9.32;;;2.70;;
76094;SDS011;64821;13.710;100.604;2023-06-14T01:24:36;8.00;;;2.30;;
76094;SDS011;64821;13.710;100.604;2023-06-14T01:25:40;8.77;;;2.90;;
76094;SDS011;64821;13.710;100.604;2023-06-14T01:26:43;11.15;;;3.25;;
76094;SDS011;64821;13.710;100.604;2023-06-14T01:27:48;8.95;;;2.78;;
76094;SDS011;64821;13.710;100.604;2023-06-14T01:28:54;9.57;;;2.80;;
76094;SDS011;64821;13.710;100.604;2023-06-14T01:29:58;9.10;;;3.03;;
76094;SDS011;64821;13.710;100.604;2023-06-14T01:31:02;8.82;;;2.80;;
76094;SDS011;64821;13.710;100.604;2023-06-14T01:32:07;9.32;;;2.70;;
76094;SDS011;64821;13.710;100.604;2023-06-14T01:33:11;7.90;;;2.47;;
76094;SDS011;64821;13.710;100.604;2023-06-14T01:34:16;8.30;;;2.50;;
76094;SDS011;64821;13.710;100.604;2023-06-14T01:35:20;9.73;;;2.77;;
76094;SDS011;64821;13.710;100.604;2023-06-14T01:36:24;7.43;;;2.75;;
76094;SDS011;64821;13.710;100.604;2023-06-14T01:37:30;10.60;;;2.72;;
76094;SDS011;64821;13.710;100.604;2023-06-14T01:38:36;7.72;;;2.60;;
76094;SDS011;64821;13.710;100.604;2023-06-14T01:39:41;9.20;;;3.33;;
76094;SDS011;64821;13.710;100.604;2023-06-14T01:40:46;8.97;;;2.47;;
76094;SDS011;64821;13.710;100.604;2023-06-14T01:41:51;9.13;;;2.65;;
76094;SDS011;64821;13.710;100.604;2023-06-14T01:42:55;7.97;;;2.55;;
76094;SDS011;64821;13.710;100.604;2023-06-14T01:44:00;10.00;;;2.58;;
76094;SDS011;64821;13.710;100.604;2023-06-14T01:45:06;25.85;;;3.33;;
76094;SDS011;64821;13.710;100.604;2023-06-14T01:46:11;10.90;;;2.30;;
76094;SDS011;64821;13.710;100.604;2023-06-14T01:47:17;8.75;;;2.38;;
76094;SDS011;64821;13.710;100.604;2023-06-14T01:48:22;6.93;;;2.20;;
76094;SDS011;64821;13.710;100.604;2023-06-14T01:49:26;7.50;;;2.15;;
76094;SDS011;64821;13.710;100.604;2023-06-14T01:50:30;8.88;;;1.90;;
76094;SDS011;64821;13.710;100.604;2023-06-14T01:51:34;13.00;;;2.57;;
76094;SDS011;64821;13.710;100.604;2023-06-14T01:52:37;9.38;;;2.40;;
76094;SDS011;64821;13.710;100.604;2023-06-14T01:53:43;9.57;;;2.55;;
76094;SDS011;64821;13.710;100.604;2023-06-14T01:54:46;7.47;;;2.00;;
76094;SDS011;64821;13.710;100.604;2023-06-14T01:55:50;6.80;;;1.90;;
76094;SDS011;64821;13.710;100.604;2023-06-14T01:56:54;8.43;;;2.50;;
76094;SDS011;64821;13.710;100.604;2023-06-14T01:57:57;7.55;;;2.03;;
76094;SDS011;64821;13.710;100.604;2023-06-14T01:59:01;6.78;;;2.00;;
76094;SDS011;64821;13.710;100.604;2023-06-14T02:00:05;8.00;;;1.67;;
76094;SDS011;64821;13.710;100.604;2023-06-14T02:01:09;6.82;;;1.83;;
76094;SDS011;64821;13.710;100.604;2023-06-14T02:02:13;7.67;;;2.00;;
76094;SDS011;64821;13.710;100.604;2023-06-14T02:03:17;7.38;;;2.05;;
76094;SDS011;64821;13.710;100.604;2023-06-14T02:04:21;8.02;;;2.00;;
76094;SDS011;64821;13.710;100.604;2023-06-14T02:05:25;10.35;;;2.30;;
76094;SDS011;64821;13.710;100.604;2023-06-14T02:06:29;6.82;;;2.17;;
76094;SDS011;64821;13.710;100.604;2023-06-14T02:07:33;8.17;;;2.07;;
76094;SDS011;64821;13.710;100.604;2023-06-14T02:08:37;8.57;;;2.30;;
76094;SDS011;64821;13.710;100.604;2023-06-14T02:09:42;8.48;;;2.03;;
76094;SDS011;64821;13.710;100.604;2023-06-14T02:10:46;9.15;;;2.00;;
76094;SDS011;64821;13.710;100.604;2023-06-14T02:11:49;8.65;;;1.90;;
76094;SDS011;64821;13.710;100.604;2023-06-14T02:12:53;8.13;;;1.90;;
76094;SDS011;64821;13.710;100.604;2023-06-14T02:13:57;10.32;;;2.28;;
76094;SDS011;64821;13.710;100.604;2023-06-14T02:15:00;9.18;;;2.33;;
76094;SDS011;64821;13.710;100.604;2023-06-14T02:16:04;9.93;;;2.22;;
76094;SDS011;64821;13.710;100.604;2023-06-14T02:17:08;8.93;;;1.95;;
76094;SDS011;64821;13.710;100.604;2023-06-14T02:18:12;8.40;;;2.03;;
76094;SDS011;64821;13.710;100.604;2023-06-14T02:19:15;10.32;;;2.00;;
76094;SDS011;64821;13.710;100.604;2023-06-14T02:20:19;8.50;;;1.92;;
76094;SDS011;64821;13.710;100.604;2023-06-14T02:21:23;8.55;;;2.20;;
76094;SDS011;64821;13.710;100.604;2023-06-14T02:22:27;8.07;;;1.90;;
76094;SDS011;64821;13.710;100.604;2023-06-14T02:23:30;7.30;;;1.83;;
76094;SDS011;64821;13.710;100.604;2023-06-14T02:24:36;7.85;;;2.00;;
76094;SDS011;64821;13.710;100.604;2023-06-14T02:25:41;8.02;;;1.70;;
76094;SDS011;64821;13.710;100.604;2023-06-14T02:26:45;10.45;;;1.60;;
76094;SDS011;64821;13.710;100.604;2023-06-14T02:27:49;8.75;;;1.58;;
76094;SDS011;64821;13.710;100.604;2023-06-14T02:28:52;6.50;;;1.47;;
76094;SDS011;64821;13.710;100.604;2023-06-14T02:29:56;8.20;;;1.63;;
76094;SDS011;64821;13.710;100.604;2023-06-14T02:31:00;8.10;;;1.67;;
76094;SDS011;64821;13.710;100.604;2023-06-14T02:32:04;8.57;;;1.90;;
76094;SDS011;64821;13.710;100.604;2023-06-14T02:33:08;6.75;;;1.80;;
76094;SDS011;64821;13.710;100.604;2023-06-14T02:34:12;7.63;;;1.80;;
76094;SDS011;64821;13.710;100.604;2023-06-14T02:35:15;8.43;;;1.88;;
76094;SDS011;64821;13.710;100.604;2023-06-14T02:36:19;7.97;;;2.00;;
76094;SDS011;64821;13.710;100.604;2023-06-14T02:37:23;7.05;;;1.70;;
76094;SDS011;64821;13.710;100.604;2023-06-14T02:38:26;10.05;;;2.20;;
76094;SDS011;64821;13.710;100.604;2023-06-14T02:39:30;6.20;;;1.80;;
76094;SDS011;64821;13.710;100.604;2023-06-14T02:40:34;7.80;;;1.83;;
76094;SDS011;64821;13.710;100.604;2023-06-14T02:41:39;7.75;;;2.15;;
76094;SDS011;64821;13.710;100.604;2023-06-14T02:42:43;6.75;;;1.77;;
76094;SDS011;64821;13.710;100.604;2023-06-14T02:43:47;7.88;;;1.60;;
76094;SDS011;64821;13.710;100.604;2023-06-14T02:44:50;10.37;;;1.60;;
76094;SDS011;64821;13.710;100.604;2023-06-14T02:45:54;7.90;;;1.45;;
76094;SDS011;64821;13.710;100.604;2023-06-14T02:46:58;5.72;;;1.30;;
76094;SDS011;64821;13.710;100.604;2023-06-14T02:48:01;6.55;;;1.50;;
76094;SDS011;64821;13.710;100.604;2023-06-14T02:49:05;9.98;;;1.70;;
76094;SDS011;64821;13.710;100.604;2023-06-14T02:50:09;9.13;;;1.60;;
76094;SDS011;64821;13.710;100.604;2023-06-14T02:51:13;6.43;;;1.90;;
76094;SDS011;64821;13.710;100.604;2023-06-14T02:52:16;8.00;;;1.80;;
76094;SDS011;64821;13.710;100.604;2023-06-14T02:53:20;9.52;;;1.52;;
76094;SDS011;64821;13.710;100.604;2023-06-14T02:54:24;7.45;;;1.70;;
76094;SDS011;64821;13.710;100.604;2023-06-14T02:55:28;8.07;;;1.90;;
76094;SDS011;64821;13.710;100.604;2023-06-14T02:56:32;7.90;;;2.00;;
76094;SDS011;64821;13.710;100.604;2023-06-14T02:57:37;10.25;;;1.73;;
76094;SDS011;64821;13.710;100.604;2023-06-14T02:58:41;8.07;;;1.52;;
76094;SDS011;64821;13.710;100.604;2023-06-14T02:59:44;6.70;;;1.67;;
76094;SDS011;64821;13.710;100.604;2023-06-14T03:00:48;7.33;;;1.60;;
76094;SDS011;64821;13.710;100.604;2023-06-14T03:01:52;5.55;;;1.40;;
76094;SDS011;64821;13.710;100.604;2023-06-14T03:02:55;7.47;;;1.50;;
76094;SDS011;64821;13.710;100.604;2023-06-14T03:04:00;6.60;;;1.33;;
76094;SDS011;64821;13.710;100.604;2023-06-14T03:05:04;7.30;;;1.40;;
76094;SDS011;64821;13.710;100.604;2023-06-14T03:06:08;10.20;;;1.60;;
76094;SDS011;64821;13.710;100.604;2023-06-14T03:07:12;7.15;;;1.80;;
76094;SDS011;64821;13.710;100.604;2023-06-14T03:08:15;6.90;;;1.80;;
76094;SDS011;64821;13.710;100.604;2023-06-14T03:09:19;7.55;;;1.88;;
76094;SDS011;64821;13.710;100.604;2023-06-14T03:10:24;9.57;;;2.20;;
76094;SDS011;64821;13.710;100.604;2023-06-14T03:11:28;6.90;;;1.73;;
76094;SDS011;64821;13.710;100.604;2023-06-14T03:12:32;7.72;;;1.85;;
76094;SDS011;64821;13.710;100.604;2023-06-14T03:13:37;9.15;;;1.90;;
76094;SDS011;64821;13.710;100.604;2023-06-14T03:14:41;9.27;;;2.15;;
76094;SDS011;64821;13.710;100.604;2023-06-14T03:15:44;8.77;;;1.73;;
76094;SDS011;64821;13.710;100.604;2023-06-14T03:16:48;8.07;;;1.63;;
76094;SDS011;64821;13.710;100.604;2023-06-14T03:17:52;7.72;;;1.42;;
76094;SDS011;64821;13.710;100.604;2023-06-14T20:01:28;7.78;;;2.28;;
76094;SDS011;64821;13.710;100.604;2023-06-14T20:02:32;8.38;;;2.03;;
76094;SDS011;64821;13.710;100.604;2023-06-14T20:03:36;7.70;;;1.92;;
76094;SDS011;64821;13.710;100.604;2023-06-14T20:04:39;9.63;;;2.35;;
76094;SDS011;64821;13.710;100.604;2023-06-14T20:05:43;8.63;;;1.70;;
76094;SDS011;64821;13.710;100.604;2023-06-14T20:06:47;10.27;;;2.03;;
76094;SDS011;64821;13.710;100.604;2023-06-14T20:07:51;7.95;;;2.20;;
76094;SDS011;64821;13.710;100.604;2023-06-14T20:08:54;8.45;;;2.17;;
76094;SDS011;64821;13.710;100.604;2023-06-14T20:09:58;8.52;;;2.00;;
76094;SDS011;64821;13.710;100.604;2023-06-14T20:11:02;8.10;;;2.10;;
76094;SDS011;64821;13.710;100.604;2023-06-14T20:12:06;6.50;;;1.77;;
76094;SDS011;64821;13.710;100.604;2023-06-14T20:13:10;8.73;;;2.25;;
76094;SDS011;64821;13.710;100.604;2023-06-14T20:14:14;6.97;;;2.30;;
76094;SDS011;64821;13.710;100.604;2023-06-14T20:15:18;8.07;;;2.30;;
76094;SDS011;64821;13.710;100.604;2023-06-14T20:16:21;10.30;;;2.03;;
76094;SDS011;64821;13.710;100.604;2023-06-14T20:17:27;7.40;;;2.40;;
76094;SDS011;64821;13.710;100.604;2023-06-14T20:18:31;8.45;;;1.75;;
76094;SDS011;64821;13.710;100.604;2023-06-14T20:19:35;7.97;;;2.20;;
76094;SDS011;64821;13.710;100.604;2023-06-14T20:20:39;8.05;;;2.30;;
76094;SDS011;64821;13.710;100.604;2023-06-14T20:21:43;9.03;;;2.03;;
76094;SDS011;64821;13.710;100.604;2023-06-14T20:22:46;8.48;;;1.90;;
76094;SDS011;64821;13.710;100.604;2023-06-14T20:23:50;7.72;;;2.05;;
76094;SDS011;64821;13.710;100.604;2023-06-14T20:24:54;7.13;;;2.00;;
76094;SDS011;64821;13.710;100.604;2023-06-14T20:25:58;12.57;;;2.33;;
76094;SDS011;64821;13.710;100.604;2023-06-14T20:27:02;7.17;;;1.90;;
76094;SDS011;64821;13.710;100.604;2023-06-14T20:28:05;8.50;;;1.90;;
76094;SDS011;64821;13.710;100.604;2023-06-14T20:29:09;8.07;;;2.05;;
76094;SDS011;64821;13.710;100.604;2023-06-14T20:30:13;6.45;;;1.60;;
76094;SDS011;64821;13.710;100.604;2023-06-14T20:31:19;7.53;;;1.63;;
76094;SDS011;64821;13.710;100.604;2023-06-14T20:32:24;6.77;;;1.60;;
76094;SDS011;64821;13.710;100.604;2023-06-14T20:33:29;8.43;;;1.67;;
76094;SDS011;64821;13.710;100.604;2023-06-14T20:34:33;6.38;;;1.80;;
76094;SDS011;64821;13.710;100.604;2023-06-14T20:35:37;7.28;;;1.77;;
76094;SDS011;64821;13.710;100.604;2023-06-14T20:36:41;7.97;;;1.88;;
76094;SDS011;64821;13.710;100.604;2023-06-14T20:37:44;7.27;;;1.77;;
76094;SDS011;64821;13.710;100.604;2023-06-14T20:38:48;7.70;;;1.90;;
76094;SDS011;64821;13.710;100.604;2023-06-14T20:39:53;7.55;;;1.75;;
76094;SDS011;64821;13.710;100.604;2023-06-14T20:40:57;6.07;;;1.65;;
76094;SDS011;64821;13.710;100.604;2023-06-14T20:42:01;10.13;;;2.38;;
76094;SDS011;64821;13.710;100.604;2023-06-14T20:43:17;8.10;;;2.00;;
76094;SDS011;64821;13.710;100.604;2023-06-14T20:44:21;7.95;;;2.10;;
76094;SDS011;64821;13.710;100.604;2023-06-14T20:45:25;6.93;;;2.10;;
76094;SDS011;64821;13.710;100.604;2023-06-14T20:46:29;7.97;;;2.00;;
76094;SDS011;64821;13.710;100.604;2023-06-14T20:47:32;7.35;;;2.22;;
76094;SDS011;64821;13.710;100.604;2023-06-14T20:48:38;8.57;;;2.33;;
76094;SDS011;64821;13.710;100.604;2023-06-14T20:49:42;9.10;;;2.50;;
76094;SDS011;64821;13.710;100.604;2023-06-14T20:50:46;6.85;;;2.42;;
76094;SDS011;64821;13.710;100.604;2023-06-14T20:51:49;8.18;;;2.50;;
76094;SDS011;64821;13.710;100.604;2023-06-14T20:52:53;12.10;;;3.20;;
76094;SDS011;64821;13.710;100.604;2023-06-14T20:53:57;8.60;;;2.87;;
76094;SDS011;64821;13.710;100.604;2023-06-14T20:55:01;9.23;;;3.13;;
76094;SDS011;64821;13.710;100.604;2023-06-14T20:56:05;9.93;;;3.60;;
76094;SDS011;64821;13.710;100.604;2023-06-14T20:57:08;9.02;;;3.55;;
76094;SDS011;64821;13.710;100.604;2023-06-14T20:58:13;12.20;;;3.97;;
76094;SDS011;64821;13.710;100.604;2023-06-14T20:59:16;10.37;;;4.57;;
76094;SDS011;64821;13.710;100.604;2023-06-14T21:00:20;9.60;;;3.95;;
76094;SDS011;64821;13.710;100.604;2023-06-14T21:01:24;10.13;;;4.32;;
76094;SDS011;64821;13.710;100.604;2023-06-14T21:02:28;10.32;;;4.65;;
76094;SDS011;64821;13.710;100.604;2023-06-14T21:03:31;12.63;;;4.60;;
76094;SDS011;64821;13.710;100.604;2023-06-14T21:04:37;10.07;;;4.70;;
76094;SDS011;64821;13.710;100.604;2023-06-14T21:05:41;10.77;;;4.80;;
76094;SDS011;64821;13.710;100.604;2023-06-14T21:06:45;12.30;;;4.57;;
76094;SDS011;64821;13.710;100.604;2023-06-14T21:07:49;11.07;;;4.93;;
76094;SDS011;64821;13.710;100.604;2023-06-14T21:08:53;10.13;;;5.13;;
76094;SDS011;64821;13.710;100.604;2023-06-14T21:09:56;10.23;;;5.00;;
76094;SDS011;64821;13.710;100.604;2023-06-14T21:11:00;10.48;;;5.18;;
76094;SDS011;64821;13.710;100.604;2023-06-14T21:12:04;11.73;;;5.05;;
76094;SDS011;64821;13.710;100.604;2023-06-14T21:13:10;16.25;;;4.68;;
76094;SDS011;64821;13.710;100.604;2023-06-14T21:14:13;10.32;;;4.60;;
76094;SDS011;64821;13.710;100.604;2023-06-14T21:15:17;10.70;;;4.43;;
76094;SDS011;64821;13.710;100.604;2023-06-14T21:16:21;10.10;;;4.10;;
76094;SDS011;64821;13.710;100.604;2023-06-14T21:17:25;10.23;;;4.70;;
76094;SDS011;64821;13.710;100.604;2023-06-14T21:18:29;10.05;;;3.80;;
76094;SDS011;64821;13.710;100.604;2023-06-14T21:19:33;11.43;;;4.10;;
76094;SDS011;64821;13.710;100.604;2023-06-14T21:20:38;9.50;;;3.80;;
76094;SDS011;64821;13.710;100.604;2023-06-14T21:21:42;9.20;;;3.88;;
76094;SDS011;64821;13.710;100.604;2023-06-14T21:22:46;11.02;;;4.38;;
76094;SDS011;64821;13.710;100.604;2023-06-14T21:23:50;10.88;;;4.00;;
76094;SDS011;64821;13.710;100.604;2023-06-14T21:24:53;11.63;;;4.10;;
76094;SDS011;64821;13.710;100.604;2023-06-14T21:25:57;9.63;;;3.80;;
76094;SDS011;64821;13.710;100.604;2023-06-14T21:27:01;8.65;;;3.45;;
76094;SDS011;64821;13.710;100.604;2023-06-14T21:28:05;12.32;;;3.70;;
76094;SDS011;64821;13.710;100.604;2023-06-14T21:29:09;10.95;;;3.67;;
76094;SDS011;64821;13.710;100.604;2023-06-14T21:30:14;10.18;;;3.22;;
76094;SDS011;64821;13.710;100.604;2023-06-14T21:31:19;9.97;;;3.50;;
76094;SDS011;64821;13.710;100.604;2023-06-14T21:32:23;9.15;;;3.30;;
76094;SDS011;64821;13.710;100.604;2023-06-14T21:33:26;8.80;;;3.40;;
76094;SDS011;64821;13.710;100.604;2023-06-14T21:34:30;11.43;;;2.90;;
76094;SDS011;64821;13.710;100.604;2023-06-14T21:35:34;8.93;;;3.30;;
76094;SDS011;64821;13.710;100.604;2023-06-14T21:36:39;7.90;;;3.00;;
76094;SDS011;64821;13.710;100.604;2023-06-14T21:37:43;9.27;;;2.78;;
76094;SDS011;64821;13.710;100.604;2023-06-14T21:38:47;18.10;;;3.22;;
76094;SDS011;64821;13.710;100.604;2023-06-14T21:39:50;9.57;;;3.05;;
76094;SDS011;64821;13.710;100.604;2023-06-14T21:40:54;8.02;;;3.22;;
76094;SDS011;64821;13.710;100.604;2023-06-14T21:41:58;10.50;;;2.90;;
76094;SDS011;64821;13.710;100.604;2023-06-14T21:43:01;9.15;;;3.00;;
76094;SDS011;64821;13.710;100.604;2023-06-14T21:44:05;8.32;;;2.83;;
76094;SDS011;64821;13.710;100.604;2023-06-14T21:45:11;9.93;;;2.92;;
76094;SDS011;64821;13.710;100.604;2023-06-14T21:46:15;7.80;;;2.60;;
76094;SDS011;64821;13.710;100.604;2023-06-14T21:47:20;8.97;;;2.90;;
76094;SDS011;64821;13.710;100.604;2023-06-14T21:48:24;8.13;;;2.92;;
76094;SDS011;64821;13.710;100.604;2023-06-14T21:49:28;9.05;;;2.92;;
76094;SDS011;64821;13.710;100.604;2023-06-14T21:50:32;9.32;;;2.88;;
76094;SDS011;64821;13.710;100.604;2023-06-14T21:51:35;11.10;;;3.38;;
76094;SDS011;64821;13.710;100.604;2023-06-14T21:52:41;7.63;;;2.60;;
76094;SDS011;64821;13.710;100.604;2023-06-14T21:53:45;8.40;;;2.83;;
76094;SDS011;64821;13.710;100.604;2023-06-14T21:54:53;8.05;;;2.65;;
76094;SDS011;64821;13.710;100.604;2023-06-14T21:55:57;9.60;;;2.97;;
76094;SDS011;64821;13.710;100.604;2023-06-14T21:57:01;8.50;;;2.47;;
76094;SDS011;64821;13.710;100.604;2023-06-14T21:58:05;8.53;;;3.00;;
76094;SDS011;64821;13.710;100.604;2023-06-14T21:59:08;8.20;;;3.00;;
76094;SDS011;64821;13.710;100.604;2023-06-14T22:00:13;11.18;;;3.17;;
76094;SDS011;64821;13.710;100.604;2023-06-14T22:01:17;9.52;;;3.10;;
76094;SDS011;64821;13.710;100.604;2023-06-14T22:02:21;8.52;;;2.83;;
76094;SDS011;64821;13.710;100.604;2023-06-14T22:03:25;8.87;;;3.07;;
76094;SDS011;64821;13.710;100.604;2023-06-14T22:04:29;9.20;;;3.20;;
76094;SDS011;64821;13.710;100.604;2023-06-14T22:05:33;8.90;;;2.83;;
76094;SDS011;64821;13.710;100.604;2023-06-14T22:06:37;9.45;;;3.17;;
76094;SDS011;64821;13.710;100.604;2023-06-14T22:07:42;7.88;;;2.92;;
76094;SDS011;64821;13.710;100.604;2023-06-14T22:08:46;11.27;;;3.00;;
76094;SDS011;64821;13.710;100.604;2023-06-14T22:09:49;8.52;;;2.67;;
76094;SDS011;64821;13.710;100.604;2023-06-14T22:10:53;7.80;;;2.80;;
76094;SDS011;64821;13.710;100.604;2023-06-14T22:11:57;8.38;;;2.50;;
76094;SDS011;64821;13.710;100.604;2023-06-14T22:13:01;7.35;;;2.70;;
76094;SDS011;64821;13.710;100.604;2023-06-14T22:14:04;12.17;;;2.83;;
76094;SDS011;64821;13.710;100.604;2023-06-14T22:15:08;11.88;;;3.58;;
76094;SDS011;64821;13.710;100.604;2023-06-14T22:16:12;9.18;;;3.20;;
76094;SDS011;64821;13.710;100.604;2023-06-14T22:17:16;10.15;;;2.90;;
76094;SDS011;64821;13.710;100.604;2023-06-14T22:18:20;9.05;;;3.30;;
76094;SDS011;64821;13.710;100.604;2023-06-14T22:19:33;11.17;;;3.23;;
76094;SDS011;64821;13.710;100.604;2023-06-14T22:20:37;9.40;;;2.97;;
76094;SDS011;64821;13.710;100.604;2023-06-14T22:21:41;12.13;;;3.10;;
76094;SDS011;64821;13.710;100.604;2023-06-14T22:22:46;9.63;;;3.10;;
76094;SDS011;64821;13.710;100.604;2023-06-14T22:23:50;11.25;;;3.03;;
76094;SDS011;64821;13.710;100.604;2023-06-14T22:24:54;9.10;;;3.03;;
76094;SDS011;64821;13.710;100.604;2023-06-14T22:25:57;9.80;;;3.20;;
76094;SDS011;64821;13.710;100.604;2023-06-14T22:27:01;9.52;;;2.88;;
76094;SDS011;64821;13.710;100.604;2023-06-14T22:28:05;8.88;;;2.90;;
76094;SDS011;64821;13.710;100.604;2023-06-14T22:29:09;9.30;;;2.92;;
76094;SDS011;64821;13.710;100.604;2023-06-14T22:30:13;9.10;;;2.87;;
76094;SDS011;64821;13.710;100.604;2023-06-14T22:31:18;10.65;;;3.25;;
76094;SDS011;64821;13.710;100.604;2023-06-14T22:32:22;9.50;;;3.38;;
76094;SDS011;64821;13.710;100.604;2023-06-14T22:33:26;10.05;;;3.40;;
76094;SDS011;64821;13.710;100.604;2023-06-14T22:34:30;9.85;;;3.47;;
76094;SDS011;64821;13.710;100.604;2023-06-14T22:35:34;9.13;;;2.80;;
76094;SDS011;64821;13.710;100.604;2023-06-14T22:36:37;9.38;;;3.00;;
76094;SDS011;64821;13.710;100.604;2023-06-14T22:37:41;8.63;;;3.35;;
76094;SDS011;64821;13.710;100.604;2023-06-14T22:38:47;9.30;;;3.28;;
76094;SDS011;64821;13.710;100.604;2023-06-14T22:39:50;10.55;;;3.50;;
76094;SDS011;64821;13.710;100.604;2023-06-14T22:40:54;12.83;;;3.40;;
76094;SDS011;64821;13.710;100.604;2023-06-14T22:41:58;9.88;;;3.65;;
76094;SDS011;64821;13.710;100.604;2023-06-14T22:43:04;11.50;;;3.63;;
76094;SDS011;64821;13.710;100.604;2023-06-14T22:44:08;12.77;;;4.40;;
76094;SDS011;64821;13.710;100.604;2023-06-14T22:45:11;10.98;;;4.50;;
76094;SDS011;64821;13.710;100.604;2023-06-14T22:46:15;10.60;;;4.33;;
76094;SDS011;64821;13.710;100.604;2023-06-14T22:47:20;11.27;;;4.85;;
76094;SDS011;64821;13.710;100.604;2023-06-14T22:48:24;12.88;;;5.00;;
76094;SDS011;64821;13.710;100.604;2023-06-14T22:49:28;13.48;;;6.25;;
76094;SDS011;64821;13.710;100.604;2023-06-14T22:50:31;13.32;;;6.90;;
76094;SDS011;64821;13.710;100.604;2023-06-14T22:51:35;14.77;;;7.03;;
76094;SDS011;64821;13.710;100.604;2023-06-14T22:52:39;13.68;;;6.95;;
76094;SDS011;64821;13.710;100.604;2023-06-14T22:53:43;11.82;;;6.57;;
76094;SDS011;64821;13.710;100.604;2023-06-14T22:54:49;12.35;;;6.43;;
76094;SDS011;64821;13.710;100.604;2023-06-14T22:55:52;12.88;;;6.72;;
76094;SDS011;64821;13.710;100.604;2023-06-14T22:56:56;12.80;;;6.57;;